Time;durP1;ratioP1;P1;durP2;ratioP2;P2;SDS_P1;SDS_P2;PMS_P1;PMS_P2;Temp;Humidity;BMP_temperature;BMP_pressure;BME280_temperature;BME280_humidity;BME280_pressure;Samples;Min_cycle;Max_cycle;Signal;HPM_P1;HPM_P2
2023/10/18 00:00:28;;;;;;;48.53;30.30;;;;;;;;;;4932601;28;20039;-78
2023/10/18 00:02:55;;;;;;;48.95;28.65;;;;;;;;;;4952974;28;20031;-80
2023/10/18 00:05:21;;;;;;;50.15;30.65;;;;;;;;;;4942489;28;20038;-80
2023/10/18 00:07:49;;;;;;;45.13;28.13;;;;;;;;;;4973413;28;20217;-80
2023/10/18 00:10:21;;;;;;;48.40;30.20;;;;;;;;;;4973501;28;20069;-80
2023/10/18 00:12:48;;;;;;;51.97;29.38;;;;;;;;;;4969412;28;20027;-79
2023/10/18 00:15:14;;;;;;;45.92;27.75;;;;;;;;;;4970814;28;20527;-80
2023/10/18 00:17:41;;;;;;;51.22;28.60;;;;;;;;;;4971227;28;20035;-78
2023/10/18 00:20:13;;;;;;;51.58;31.05;;;;;;;;;;4973244;28;20097;-80
2023/10/18 00:22:42;;;;;;;50.75;28.73;;;;;;;;;;4953339;28;20043;-80
2023/10/18 00:25:08;;;;;;;49.45;30.27;;;;;;;;;;4950189;28;20035;-80
2023/10/18 00:27:34;;;;;;;56.00;30.40;;;;;;;;;;4970420;28;20122;-79
2023/10/18 00:30:07;;;;;;;51.30;29.48;;;;;;;;;;4971183;28;20126;-79
2023/10/18 00:32:36;;;;;;;50.58;30.90;;;;;;;;;;4970690;28;20031;-79
2023/10/18 00:35:12;;;;;;;54.13;31.30;;;;;;;;;;4952184;28;20066;-78
2023/10/18 00:37:41;;;;;;;51.67;30.95;;;;;;;;;;4968044;28;20070;-79
2023/10/18 00:40:20;;;;;;;53.00;31.08;;;;;;;;;;4967480;28;20094;-80
2023/10/18 00:42:46;;;;;;;52.92;30.95;;;;;;;;;;4952586;28;20042;-79
2023/10/18 00:45:13;;;;;;;52.78;31.08;;;;;;;;;;4950167;28;20062;-79
2023/10/18 00:47:39;;;;;;;56.38;30.70;;;;;;;;;;4969118;28;20160;-79
2023/10/18 00:50:06;;;;;;;53.67;30.58;;;;;;;;;;4949543;28;20069;-79
2023/10/18 00:52:33;;;;;;;54.65;31.58;;;;;;;;;;4953049;28;20150;-80
2023/10/18 00:54:59;;;;;;;52.85;32.90;;;;;;;;;;4949468;28;20086;-80
2023/10/18 00:57:34;;;;;;;56.72;32.22;;;;;;;;;;4932566;28;20031;-80
2023/10/18 01:00:06;;;;;;;58.20;31.58;;;;;;;;;;4966569;28;20027;-79
2023/10/18 01:02:35;;;;;;;58.80;32.58;;;;;;;;;;4954292;28;20073;-80
2023/10/18 01:05:09;;;;;;;53.63;31.98;;;;;;;;;;4953341;28;20057;-80
2023/10/18 01:07:36;;;;;;;57.90;33.10;;;;;;;;;;4955157;28;20039;-79
2023/10/18 01:10:07;;;;;;;61.35;33.83;;;;;;;;;;4971700;28;20018;-80
2023/10/18 01:12:37;;;;;;;57.08;32.53;;;;;;;;;;4960606;28;20096;-79
2023/10/18 01:15:07;;;;;;;65.25;33.63;;;;;;;;;;4975682;28;20031;-79
2023/10/18 01:17:36;;;;;;;61.40;33.35;;;;;;;;;;4955431;28;20057;-80
2023/10/18 01:20:33;;;;;;;61.10;33.75;;;;;;;;;;4955058;28;20047;-79
2023/10/18 01:22:51;;;;;;;57.00;33.05;;;;;;;;;;4972729;28;20030;-79
2023/10/18 01:25:18;;;;;;;58.60;34.08;;;;;;;;;;4991017;28;20030;-84
2023/10/18 01:27:45;;;;;;;62.80;33.70;;;;;;;;;;4961110;28;20030;-78
2023/10/18 01:30:16;;;;;;;57.95;32.92;;;;;;;;;;4973684;28;20053;-79
2023/10/18 01:32:42;;;;;;;;;;;;;;;;;;4965159;28;20020;-79
2023/10/18 01:35:11;;;;;;;61.80;33.22;;;;;;;;;;4973427;28;19898;-78
2023/10/18 01:37:43;;;;;;;62.72;34.80;;;;;;;;;;4974123;28;20133;-79
2023/10/18 01:40:21;;;;;;;56.22;32.80;;;;;;;;;;4945918;28;20131;-79
2023/10/18 01:42:50;;;;;;;62.65;33.30;;;;;;;;;;4949867;28;20026;-78
2023/10/18 01:45:22;;;;;;;60.28;32.60;;;;;;;;;;4951458;28;20039;-79
2023/10/18 01:47:49;;;;;;;63.28;33.72;;;;;;;;;;4932913;28;20053;-78
2023/10/18 01:50:18;;;;;;;67.63;33.58;;;;;;;;;;4952364;28;20023;-79
2023/10/18 01:52:45;;;;;;;60.47;31.90;;;;;;;;;;4968948;28;20105;-78
2023/10/18 01:55:12;;;;;;;61.08;34.45;;;;;;;;;;4965106;28;20378;-80
2023/10/18 01:57:43;;;;;;;57.22;31.00;;;;;;;;;;4951327;28;20042;-78
2023/10/18 02:00:19;;;;;;;58.95;32.83;;;;;;;;;;4965091;28;20038;-78
2023/10/18 02:02:49;;;;;;;58.00;31.67;;;;;;;;;;4935520;28;20042;-80
2023/10/18 02:05:17;;;;;;;62.10;34.08;;;;;;;;;;4941970;28;20031;-78
2023/10/18 02:07:50;;;;;;;54.67;31.58;;;;;;;;;;4934073;28;20038;-79
2023/10/18 02:10:23;;;;;;;57.42;32.58;;;;;;;;;;4949128;28;20051;-80
2023/10/18 02:12:49;;;;;;;55.80;31.35;;;;;;;;;;4936156;28;20456;-79
2023/10/18 02:15:16;;;;;;;59.05;30.98;;;;;;;;;;4967701;28;20023;-79
2023/10/18 02:17:43;;;;;;;55.80;31.48;;;;;;;;;;4953033;28;20039;-79
2023/10/18 02:20:25;;;;;;;58.55;31.77;;;;;;;;;;4938967;28;20070;-80
2023/10/18 02:22:53;;;;;;;58.63;31.25;;;;;;;;;;4937935;28;20065;-79
2023/10/18 02:28:08;;;;;;;56.13;31.10;;;;;;;;;;4952932;28;20046;-78
2023/10/18 02:30:38;;;;;;;57.63;30.95;;;;;;;;;;4970465;28;20043;-79
2023/10/18 02:33:07;;;;;;;55.67;29.30;;;;;;;;;;4953644;28;20027;-80
2023/10/18 02:35:33;;;;;;;52.92;30.40;;;;;;;;;;4966854;28;20034;-80
2023/10/18 02:38:08;;;;;;;49.78;29.25;;;;;;;;;;4945482;28;20047;-80
2023/10/18 02:40:38;;;;;;;55.40;30.90;;;;;;;;;;4934002;28;20031;-79
2023/10/18 02:43:08;;;;;;;57.90;31.20;;;;;;;;;;4966476;28;20042;-79
2023/10/18 02:45:34;;;;;;;80.82;30.50;;;;;;;;;;4967833;28;20089;-78
2023/10/18 02:48:00;;;;;;;57.00;30.73;;;;;;;;;;4949994;28;20125;-79
2023/10/18 02:50:30;;;;;;;52.58;30.60;;;;;;;;;;4950514;28;20379;-79
2023/10/18 02:52:57;;;;;;;52.13;28.40;;;;;;;;;;4949465;28;20061;-79
2023/10/18 02:55:26;;;;;;;50.65;28.30;;;;;;;;;;4952636;28;20027;-79
2023/10/18 02:57:52;;;;;;;51.42;28.98;;;;;;;;;;4943847;28;20046;-78
2023/10/18 03:00:19;;;;;;;53.35;29.45;;;;;;;;;;4953774;28;20042;-77
2023/10/18 03:02:46;;;;;;;51.95;27.90;;;;;;;;;;4968591;28;20054;-79
2023/10/18 03:05:12;;;;;;;48.03;28.23;;;;;;;;;;4967746;28;20027;-79
2023/10/18 03:07:41;;;;;;;46.85;26.77;;;;;;;;;;4938827;28;20054;-79
2023/10/18 03:10:25;;;;;;;50.35;27.90;;;;;;;;;;4954184;28;20078;-78
2023/10/18 03:12:52;;;;;;;52.85;28.38;;;;;;;;;;4975272;28;20105;-79
2023/10/18 03:15:20;;;;;;;46.88;27.60;;;;;;;;;;4934808;28;20023;-80
2023/10/18 03:17:49;;;;;;;46.10;26.88;;;;;;;;;;4945222;28;20043;-80
2023/10/18 03:20:22;;;;;;;50.47;27.20;;;;;;;;;;4947455;28;20070;-79
2023/10/18 03:22:49;;;;;;;49.15;28.27;;;;;;;;;;4966809;28;20047;-79
2023/10/18 03:25:30;;;;;;;46.70;27.73;;;;;;;;;;4931206;28;20377;-79
2023/10/18 03:28:12;;;;;;;44.42;27.08;;;;;;;;;;4967132;28;20031;-79
2023/10/18 03:30:44;;;;;;;43.45;26.00;;;;;;;;;;4967823;28;20038;-79
2023/10/18 03:33:14;;;;;;;48.10;28.45;;;;;;;;;;4952735;28;20038;-79
2023/10/18 03:35:43;;;;;;;47.28;27.50;;;;;;;;;;4951427;28;20042;-79
2023/10/18 03:38:21;;;;;;;49.83;26.90;;;;;;;;;;4955669;28;20085;-79
2023/10/18 03:41:07;;;;;;;50.25;28.30;;;;;;;;;;4971913;28;20023;-78
2023/10/18 03:43:36;;;;;;;49.50;27.10;;;;;;;;;;4951684;28;20101;-79
2023/10/18 03:46:29;;;;;;;46.47;27.35;;;;;;;;;;4967815;28;20042;-78
2023/10/18 03:49:01;;;;;;;48.40;28.73;;;;;;;;;;4969124;28;20019;-78
2023/10/18 03:51:30;;;;;;;48.70;28.25;;;;;;;;;;4967668;28;20500;-78
2023/10/18 03:53:56;;;;;;;52.60;28.58;;;;;;;;;;4951412;28;20050;-78
2023/10/18 03:56:23;;;;;;;51.38;29.05;;;;;;;;;;4954074;28;20030;-78
2023/10/18 03:58:53;;;;;;;50.05;28.00;;;;;;;;;;4975820;28;20026;-80
2023/10/18 04:01:21;;;;;;;41.93;22.67;;;;;;;;;;4989939;28;20041;-85
2023/10/18 04:03:49;;;;;;;50.42;27.77;;;;;;;;;;4969302;28;20290;-79
2023/10/18 04:06:23;;;;;;;48.65;28.05;;;;;;;;;;4971641;28;20137;-80
2023/10/18 04:08:50;;;;;;;56.03;29.25;;;;;;;;;;4956062;28;20031;-79
2023/10/18 04:11:24;;;;;;;45.97;27.48;;;;;;;;;;4988616;28;20034;-79
2023/10/18 04:13:51;;;;;;;48.75;29.27;;;;;;;;;;4957973;28;20111;-81
2023/10/18 04:16:18;;;;;;;49.83;28.38;;;;;;;;;;4956548;28;20053;-80
2023/10/18 04:18:44;;;;;;;45.03;26.60;;;;;;;;;;4967500;28;20114;-78
2023/10/18 04:21:25;;;;;;;47.80;27.25;;;;;;;;;;4951347;28;20043;-79
2023/10/18 04:23:54;;;;;;;46.83;27.52;;;;;;;;;;4952810;28;20034;-79
2023/10/18 04:26:21;;;;;;;45.88;26.20;;;;;;;;;;4952904;28;20027;-78
2023/10/18 04:28:48;;;;;;;43.22;26.90;;;;;;;;;;4968002;28;20038;-78
2023/10/18 04:31:15;;;;;;;46.50;26.48;;;;;;;;;;4954447;28;20098;-77
2023/10/18 04:33:42;;;;;;;43.72;26.52;;;;;;;;;;4953918;28;20046;-79
2023/10/18 04:36:10;;;;;;;49.30;28.00;;;;;;;;;;4966743;28;20114;-79
2023/10/18 04:38:42;;;;;;;48.40;28.23;;;;;;;;;;4966339;28;20038;-78
2023/10/18 04:41:09;;;;;;;49.53;27.33;;;;;;;;;;4968756;28;20035;-78
2023/10/18 04:43:36;;;;;;;49.38;27.73;;;;;;;;;;4970777;28;20022;-78
2023/10/18 04:46:14;;;;;;;47.78;27.80;;;;;;;;;;4967904;28;20055;-79
2023/10/18 04:53:59;;;;;;;49.75;26.70;;;;;;;;;;4981158;28;20038;-78
2023/10/18 04:56:34;;;;;;;;;;;;;;;;;;4957974;28;20515;-78
2023/10/18 04:59:00;;;;;;;48.25;27.10;;;;;;;;;;4958135;28;19953;-78
2023/10/18 05:01:35;;;;;;;47.80;27.15;;;;;;;;;;4970370;28;20034;-78
2023/10/18 05:04:18;;;;;;;50.40;27.15;;;;;;;;;;4952270;28;20031;-77
2023/10/18 05:06:45;;;;;;;47.25;26.17;;;;;;;;;;4972180;28;20118;-78
2023/10/18 05:09:12;;;;;;;56.42;27.77;;;;;;;;;;4955070;28;20094;-78
2023/10/18 05:11:47;;;;;;;46.17;27.13;;;;;;;;;;4971095;28;20043;-79
2023/10/18 05:14:35;;;;;;;43.22;26.52;;;;;;;;;;4959756;28;20062;-78
2023/10/18 05:17:04;;;;;;;48.45;27.67;;;;;;;;;;4977939;28;20050;-78
2023/10/18 05:19:37;;;;;;;45.47;26.58;;;;;;;;;;4935458;28;20062;-78
2023/10/18 05:22:04;;;;;;;45.53;25.77;;;;;;;;;;4937902;28;20064;-77
2023/10/18 05:24:36;;;;;;;40.75;24.08;;;;;;;;;;4941145;28;20038;-79
2023/10/18 05:27:19;;;;;;;43.33;25.52;;;;;;;;;;4950795;28;20357;-80
2023/10/18 05:29:52;;;;;;;50.65;25.13;;;;;;;;;;4952794;28;20039;-85
2023/10/18 05:35:20;;;;;;;44.30;25.95;;;;;;;;;;4967375;28;20035;-81
2023/10/18 05:37:50;;;;;;;43.13;24.77;;;;;;;;;;4967195;28;20057;-81
2023/10/18 05:43:22;;;;;;;47.47;24.45;;;;;;;;;;4941617;28;20035;-81
2023/10/18 05:45:48;;;;;;;41.17;24.08;;;;;;;;;;4957830;28;20496;-81
2023/10/18 05:48:22;;;;;;;45.25;26.20;;;;;;;;;;4988551;28;20030;-82
2023/10/18 05:51:21;;;;;;;40.38;23.30;;;;;;;;;;4986153;28;20038;-84
2023/10/18 05:53:48;;;;;;;52.58;24.20;;;;;;;;;;4973495;28;20034;-84
2023/10/18 05:56:14;;;;;;;41.85;24.95;;;;;;;;;;4974118;28;20030;-83
2023/10/18 05:58:40;;;;;;;46.28;25.23;;;;;;;;;;4952287;28;20034;-83
2023/10/18 06:01:25;;;;;;;51.08;25.58;;;;;;;;;;4969316;28;20061;-80
2023/10/18 06:03:51;;;;;;;40.47;24.80;;;;;;;;;;4973702;28;20042;-79
2023/10/18 06:06:17;;;;;;;45.08;26.10;;;;;;;;;;4956347;28;20031;-80
2023/10/18 06:08:44;;;;;;;45.50;25.17;;;;;;;;;;4949560;28;20126;-80
2023/10/18 06:11:14;;;;;;;44.50;25.50;;;;;;;;;;4968606;28;20031;-78
2023/10/18 06:13:42;;;;;;;41.42;23.92;;;;;;;;;;4957286;28;20026;-79
2023/10/18 06:16:20;;;;;;;39.08;24.13;;;;;;;;;;4985741;28;20046;-80
2023/10/18 06:18:50;;;;;;;39.85;23.60;;;;;;;;;;4950935;28;20058;-80
2023/10/18 06:21:19;;;;;;;46.35;24.40;;;;;;;;;;4974645;28;20126;-79
2023/10/18 06:23:55;;;;;;;37.53;23.77;;;;;;;;;;4955459;28;20038;-81
2023/10/18 06:26:28;;;;;;;42.45;23.73;;;;;;;;;;4970199;28;20166;-80
2023/10/18 06:29:11;;;;;;;34.83;21.80;;;;;;;;;;4964915;28;20133;-79
2023/10/18 06:31:46;;;;;;;41.42;23.90;;;;;;;;;;4990863;28;20031;-79
2023/10/18 06:34:17;;;;;;;39.03;21.67;;;;;;;;;;4968321;28;20052;-80
2023/10/18 06:36:43;;;;;;;36.53;21.70;;;;;;;;;;4970920;28;20058;-79
2023/10/18 06:39:46;;;;;;;35.50;21.58;;;;;;;;;;4957964;28;20667;-79
2023/10/18 06:42:06;;;;;;;38.38;22.08;;;;;;;;;;4983343;28;20039;-79
2023/10/18 06:44:36;;;;;;;37.67;21.77;;;;;;;;;;4977141;28;20050;-79
2023/10/18 06:47:06;;;;;;;35.13;19.80;;;;;;;;;;4987317;28;20058;-80
2023/10/18 06:49:32;;;;;;;38.50;21.88;;;;;;;;;;4973311;28;20106;-80
2023/10/18 06:52:01;;;;;;;36.70;21.45;;;;;;;;;;4972607;28;20031;-79
2023/10/18 06:54:38;;;;;;;34.22;18.65;;;;;;;;;;4954536;28;20059;-79
2023/10/18 06:57:18;;;;;;;33.88;19.52;;;;;;;;;;4973306;28;20118;-80
2023/10/18 06:59:50;;;;;;;30.52;19.83;;;;;;;;;;4939830;28;20039;-79
2023/10/18 07:02:17;;;;;;;35.78;20.73;;;;;;;;;;4955155;28;20077;-79
2023/10/18 07:04:50;;;;;;;31.92;19.65;;;;;;;;;;4952389;28;20035;-80
2023/10/18 07:07:23;;;;;;;32.67;19.70;;;;;;;;;;4967317;28;20026;-80
2023/10/18 07:09:53;;;;;;;33.42;19.98;;;;;;;;;;4964633;28;20023;-79
2023/10/18 07:12:19;;;;;;;31.47;19.83;;;;;;;;;;4952254;28;20034;-80
2023/10/18 07:14:46;;;;;;;31.83;18.70;;;;;;;;;;4953638;28;20326;-80
2023/10/18 07:17:14;;;;;;;29.65;18.17;;;;;;;;;;4938661;28;20477;-79
2023/10/18 07:19:49;;;;;;;31.00;18.38;;;;;;;;;;4954278;28;20030;-79
2023/10/18 07:22:19;;;;;;;28.13;17.77;;;;;;;;;;4917298;29;20054;-81
2023/10/18 07:24:55;;;;;;;27.80;17.45;;;;;;;;;;4962131;29;20043;-80
2023/10/18 07:27:23;;;;;;;27.17;16.63;;;;;;;;;;4943793;29;20051;-86
2023/10/18 07:29:51;;;;;;;30.00;17.27;;;;;;;;;;4974781;28;20058;-81
2023/10/18 07:32:23;;;;;;;26.92;16.45;;;;;;;;;;4972153;28;20492;-85
2023/10/18 07:34:54;;;;;;;25.75;15.88;;;;;;;;;;4962866;29;20046;-78
2023/10/18 07:37:31;;;;;;;29.92;16.13;;;;;;;;;;4944635;29;20055;-79
2023/10/18 07:40:08;;;;;;;25.30;16.02;;;;;;;;;;4941693;29;20047;-80
2023/10/18 07:42:52;;;;;;;26.60;15.73;;;;;;;;;;4926579;29;20400;-80
2023/10/18 07:45:21;;;;;;;25.08;15.23;;;;;;;;;;4957448;29;20053;-79
2023/10/18 07:47:54;;;;;;;26.70;14.85;;;;;;;;;;4939938;29;20059;-80
2023/10/18 07:53:22;;;;;;;23.48;14.90;;;;;;;;;;4878532;29;20033;-80
2023/10/18 07:56:07;;;;;;;32.50;15.82;;;;;;;;;;4926348;29;20055;-79
2023/10/18 07:58:47;;;;;;;24.80;14.43;;;;;;;;;;4921259;29;20052;-80
2023/10/18 08:01:14;;;;;;;22.27;14.57;;;;;;;;;;4936550;29;20088;-80
2023/10/18 08:03:42;;;;;;;22.80;13.60;;;;;;;;;;4928003;29;20384;-80
2023/10/18 08:06:15;;;;;;;26.75;13.68;;;;;;;;;;4923825;29;20047;-81
2023/10/18 08:08:42;;;;;;;26.67;14.60;;;;;;;;;;4957357;29;20038;-80
2023/10/18 08:11:12;;;;;;;24.98;13.50;;;;;;;;;;4956930;29;20067;-79
2023/10/18 08:13:47;;;;;;;20.73;13.00;;;;;;;;;;4939683;29;20441;-80
2023/10/18 08:16:19;;;;;;;26.42;13.82;;;;;;;;;;4940788;29;20058;-80
2023/10/18 08:18:52;;;;;;;19.30;12.98;;;;;;;;;;4949072;29;20031;-80
2023/10/18 08:21:25;;;;;;;22.48;13.00;;;;;;;;;;4952594;28;20149;-80
2023/10/18 08:24:07;;;;;;;21.60;12.93;;;;;;;;;;4975158;28;20443;-80
2023/10/18 08:26:45;;;;;;;22.60;12.65;;;;;;;;;;4975609;28;20054;-81
2023/10/18 08:29:12;;;;;;;20.52;12.65;;;;;;;;;;4960375;28;20031;-81
2023/10/18 08:31:38;;;;;;;22.27;12.35;;;;;;;;;;4958404;28;20035;-80
2023/10/18 08:34:05;;;;;;;20.65;12.23;;;;;;;;;;4949884;28;20042;-80
2023/10/18 08:36:34;;;;;;;19.63;12.00;;;;;;;;;;4975739;28;20094;-80
2023/10/18 08:39:01;;;;;;;16.60;11.23;;;;;;;;;;4958417;29;20019;-78
2023/10/18 08:41:37;;;;;;;17.23;10.63;;;;;;;;;;4972645;29;20039;-78
2023/10/18 08:44:26;;;;;;;18.08;11.23;;;;;;;;;;4976074;28;20515;-78
2023/10/18 08:47:35;;;;;;;17.35;10.15;;;;;;;;;;4982644;28;20169;-77
2023/10/18 08:49:53;;;;;;;18.65;11.32;;;;;;;;;;4974742;28;20031;-81
2023/10/18 08:52:20;;;;;;;18.70;10.95;;;;;;;;;;4977240;28;20031;-82
2023/10/18 08:54:48;;;;;;;19.77;10.70;;;;;;;;;;4959333;28;20031;-80
2023/10/18 08:57:24;;;;;;;18.15;10.70;;;;;;;;;;4943650;28;20031;-80
2023/10/18 08:59:52;;;;;;;15.82;9.77;;;;;;;;;;4981059;28;20124;-79
2023/10/18 09:02:21;;;;;;;15.95;9.63;;;;;;;;;;4995698;28;20074;-79
2023/10/18 09:04:59;;;;;;;17.58;10.55;;;;;;;;;;4994255;28;20095;-79
2023/10/18 09:15:49;;;;;;;15.10;10.20;;;;;;;;;;4975649;28;20039;-79
2023/10/18 09:18:15;;;;;;;16.23;9.55;;;;;;;;;;4986409;28;20035;-80
2023/10/18 09:20:42;;;;;;;18.27;10.02;;;;;;;;;;4958912;29;20434;-78
2023/10/18 09:23:19;;;;;;;13.50;9.90;;;;;;;;;;4941104;29;20035;-79
2023/10/18 09:25:48;;;;;;;17.90;9.50;;;;;;;;;;4937032;29;20035;-79
2023/10/18 09:28:19;;;;;;;16.40;9.48;;;;;;;;;;4919489;29;20577;-80
2023/10/18 09:30:46;;;;;;;13.60;10.13;;;;;;;;;;4919332;29;20416;-80
2023/10/18 09:33:17;;;;;;;16.92;9.40;;;;;;;;;;4918791;29;20098;-80
2023/10/18 09:35:47;;;;;;;16.83;9.73;;;;;;;;;;4955337;28;20039;-80
2023/10/18 09:38:21;;;;;;;14.48;9.80;;;;;;;;;;4955469;29;20170;-80
2023/10/18 09:40:48;;;;;;;14.38;9.40;;;;;;;;;;4954802;29;20059;-80
2023/10/18 09:43:14;;;;;;;17.25;9.90;;;;;;;;;;4954133;28;20050;-81
2023/10/18 09:45:41;;;;;;;14.70;9.40;;;;;;;;;;4922667;29;20035;-81
2023/10/18 09:48:11;;;;;;;13.73;8.95;;;;;;;;;;4922558;29;20088;-79
2023/10/18 09:50:39;;;;;;;16.25;10.10;;;;;;;;;;4938316;29;20035;-80
2023/10/18 09:53:06;;;;;;;19.10;9.90;;;;;;;;;;4935415;29;20029;-80
2023/10/18 09:55:32;;;;;;;13.27;8.77;;;;;;;;;;4934890;29;20028;-80
2023/10/18 09:57:59;;;;;;;14.95;8.63;;;;;;;;;;4940785;29;20055;-79
2023/10/18 10:00:42;;;;;;;15.02;9.10;;;;;;;;;;4946676;28;20043;-88
2023/10/18 10:03:09;;;;;;;14.48;7.63;;;;;;;;;;4953774;29;20350;-80
2023/10/18 10:05:42;;;;;;;22.95;9.45;;;;;;;;;;4973066;29;20027;-80
2023/10/18 10:08:10;;;;;;;15.18;9.82;;;;;;;;;;4974649;28;20051;-81
2023/10/18 10:10:45;;;;;;;12.05;8.63;;;;;;;;;;4972100;29;20035;-79
2023/10/18 10:13:19;;;;;;;13.52;8.65;;;;;;;;;;4967529;29;20107;-78
2023/10/18 10:15:48;;;;;;;11.73;8.50;;;;;;;;;;4965369;29;20054;-78
2023/10/18 10:18:14;;;;;;;11.98;8.23;;;;;;;;;;4958611;29;20046;-80
2023/10/18 10:20:42;;;;;;;16.58;7.63;;;;;;;;;;4960190;28;20047;-80
2023/10/18 10:23:15;;;;;;;12.98;8.98;;;;;;;;;;4976890;28;20023;-79
2023/10/18 10:25:49;;;;;;;12.02;8.20;;;;;;;;;;4973047;28;20039;-79
2023/10/18 10:28:53;;;;;;;12.73;8.35;;;;;;;;;;4973392;28;20041;-79
2023/10/18 10:31:22;;;;;;;12.02;8.52;;;;;;;;;;4974330;28;20123;-80
2023/10/18 10:34:10;;;;;;;13.35;9.02;;;;;;;;;;4955874;28;20042;-79
2023/10/18 10:36:37;;;;;;;11.23;8.10;;;;;;;;;;4973820;28;20051;-80
2023/10/18 10:39:05;;;;;;;10.45;7.80;;;;;;;;;;4971342;28;20101;-80
2023/10/18 10:41:34;;;;;;;13.77;8.77;;;;;;;;;;4975580;28;20034;-80
2023/10/18 10:44:11;;;;;;;14.35;8.32;;;;;;;;;;4952744;28;20066;-80
2023/10/18 10:46:40;;;;;;;11.68;8.23;;;;;;;;;;4973637;28;20041;-79
2023/10/18 10:49:34;;;;;;;10.32;7.93;;;;;;;;;;4974283;28;20034;-80
2023/10/18 10:52:04;;;;;;;10.85;7.57;;;;;;;;;;4952311;28;20046;-81
2023/10/18 10:54:30;;;;;;;10.93;7.55;;;;;;;;;;4972793;28;20038;-80
2023/10/18 10:56:56;;;;;;;17.85;8.68;;;;;;;;;;4973461;28;20105;-81
2023/10/18 10:59:25;;;;;;;13.23;8.48;;;;;;;;;;4972781;28;20113;-79
2023/10/18 11:04:29;;;;;;;12.07;7.95;;;;;;;;;;4972413;28;20041;-80
2023/10/18 11:07:00;;;;;;;10.43;8.02;;;;;;;;;;4973109;28;20035;-80
2023/10/18 11:09:33;;;;;;;13.77;7.95;;;;;;;;;;4973672;28;20030;-79
2023/10/18 11:12:03;;;;;;;11.40;7.43;;;;;;;;;;4960334;28;20105;-80
2023/10/18 11:14:31;;;;;;;15.25;7.75;;;;;;;;;;4970789;28;20031;-80
2023/10/18 11:17:03;;;;;;;11.77;7.55;;;;;;;;;;4944449;28;20076;-79
2023/10/18 11:19:29;;;;;;;10.10;7.15;;;;;;;;;;4973290;28;20687;-79
2023/10/18 11:21:58;;;;;;;11.50;7.38;;;;;;;;;;4963065;28;20061;-80
2023/10/18 11:24:25;;;;;;;13.52;6.82;;;;;;;;;;4963488;28;20027;-81
2023/10/18 11:26:51;;;;;;;13.35;7.32;;;;;;;;;;4973630;28;20068;-79
2023/10/18 11:29:24;;;;;;;10.02;7.40;;;;;;;;;;4955834;28;20035;-81
2023/10/18 11:31:58;;;;;;;10.70;7.35;;;;;;;;;;4974901;28;20066;-80
2023/10/18 11:34:27;;;;;;;10.43;7.35;;;;;;;;;;4966158;28;20107;-81
2023/10/18 11:37:02;;;;;;;9.98;6.47;;;;;;;;;;4972805;28;20019;-82
2023/10/18 11:39:35;;;;;;;9.75;6.85;;;;;;;;;;4973582;28;20050;-81
2023/10/18 11:42:02;;;;;;;9.32;7.07;;;;;;;;;;4977017;28;20022;-80
2023/10/18 11:44:33;;;;;;;9.60;6.55;;;;;;;;;;4973902;28;20074;-79
2023/10/18 11:47:11;;;;;;;14.63;7.53;;;;;;;;;;4988062;28;20090;-80
2023/10/18 11:49:41;;;;;;;14.57;7.70;;;;;;;;;;4979543;28;20027;-81
2023/10/18 11:52:16;;;;;;;9.00;6.90;;;;;;;;;;4980505;28;20058;-81
2023/10/18 11:54:47;;;;;;;12.35;7.72;;;;;;;;;;4973423;28;20372;-81
2023/10/18 11:57:26;;;;;;;9.35;6.85;;;;;;;;;;4956789;28;20039;-81
2023/10/18 11:59:56;;;;;;;14.10;6.97;;;;;;;;;;4956206;28;20178;-80
2023/10/18 12:02:27;;;;;;;12.02;7.00;;;;;;;;;;4955250;28;20026;-83
2023/10/18 12:04:55;;;;;;;13.88;6.45;;;;;;;;;;4954450;28;20034;-82
2023/10/18 12:07:22;;;;;;;9.15;6.65;;;;;;;;;;4973166;28;20070;-82
2023/10/18 12:09:51;;;;;;;12.38;6.45;;;;;;;;;;4958044;28;20315;-81
2023/10/18 12:12:24;;;;;;;13.70;7.40;;;;;;;;;;4976941;28;20185;-82
2023/10/18 12:14:50;;;;;;;13.13;7.00;;;;;;;;;;4975690;28;20022;-80
2023/10/18 12:17:17;;;;;;;10.57;7.20;;;;;;;;;;4959240;28;20046;-80
2023/10/18 12:19:43;;;;;;;11.02;6.85;;;;;;;;;;4954745;29;20129;-80
2023/10/18 12:22:10;;;;;;;12.73;7.00;;;;;;;;;;4942657;28;20198;-82
2023/10/18 12:24:38;;;;;;;15.10;7.50;;;;;;;;;;4974761;28;20035;-81
2023/10/18 12:27:33;;;;;;;10.95;6.60;;;;;;;;;;4974147;28;20109;-80
2023/10/18 12:30:09;;;;;;;12.02;6.57;;;;;;;;;;4939103;29;20446;-79
2023/10/18 12:32:50;;;;;;;10.23;6.50;;;;;;;;;;4955770;29;20078;-82
2023/10/18 12:35:19;;;;;;;14.13;6.40;;;;;;;;;;4965518;28;20114;-81
2023/10/18 12:37:46;;;;;;;9.32;6.55;;;;;;;;;;4974138;28;20126;-79
2023/10/18 12:40:28;;;;;;;12.68;6.30;;;;;;;;;;4973174;28;20129;-80
2023/10/18 12:42:58;;;;;;;10.40;6.85;;;;;;;;;;4973659;28;20030;-82
2023/10/18 12:45:24;;;;;;;12.03;7.20;;;;;;;;;;4974695;28;20030;-82
2023/10/18 12:47:51;;;;;;;10.05;6.53;;;;;;;;;;4973879;28;20298;-81
2023/10/18 12:50:18;;;;;;;11.95;7.47;;;;;;;;;;4974758;28;20066;-82
2023/10/18 12:52:45;;;;;;;14.73;7.45;;;;;;;;;;4957714;28;20027;-80
2023/10/18 12:57:56;;;;;;;10.65;7.10;;;;;;;;;;4974401;28;20039;-81
2023/10/18 13:00:26;;;;;;;11.82;7.20;;;;;;;;;;4974182;28;20037;-82
2023/10/18 13:05:22;;;;;;;15.18;7.60;;;;;;;;;;4974362;28;20105;-81
2023/10/18 13:08:02;;;;;;;10.07;6.60;;;;;;;;;;4958112;28;20047;-80
2023/10/18 13:10:31;;;;;;;14.25;6.60;;;;;;;;;;4970122;28;20043;-80
2023/10/18 13:13:04;;;;;;;18.13;13.40;;;;;;;;;;4976961;28;20446;-80
2023/10/18 13:15:33;;;;;;;15.82;7.45;;;;;;;;;;4993888;28;20035;-82
2023/10/18 13:17:59;;;;;;;11.13;7.35;;;;;;;;;;4993752;28;20027;-81
2023/10/18 13:20:26;;;;;;;10.05;6.78;;;;;;;;;;4987815;28;20043;-82
2023/10/18 13:22:55;;;;;;;15.30;6.78;;;;;;;;;;4947751;29;20079;-78
2023/10/18 13:25:37;;;;;;;11.35;7.30;;;;;;;;;;4967015;29;20042;-78
2023/10/18 13:28:07;;;;;;;13.80;6.57;;;;;;;;;;4942524;29;20051;-82
2023/10/18 13:30:42;;;;;;;12.77;7.57;;;;;;;;;;4942774;29;20023;-80
2023/10/18 13:33:11;;;;;;;10.90;6.43;;;;;;;;;;4949893;28;20039;-81
2023/10/18 13:35:41;;;;;;;8.40;6.22;;;;;;;;;;4941339;28;20035;-83
2023/10/18 13:38:09;;;;;;;12.68;6.57;;;;;;;;;;4958557;28;20028;-81
2023/10/18 13:40:36;;;;;;;14.18;7.35;;;;;;;;;;4953581;29;20031;-81
2023/10/18 13:43:07;;;;;;;9.00;6.45;;;;;;;;;;4938381;29;20035;-80
2023/10/18 13:45:33;;;;;;;13.02;6.97;;;;;;;;;;4954312;28;20035;-81
2023/10/18 13:48:01;;;;;;;10.15;6.90;;;;;;;;;;4936529;29;20386;-80
2023/10/18 13:50:31;;;;;;;31.30;9.98;;;;;;;;;;4936829;29;20557;-79
2023/10/18 13:52:57;;;;;;;14.40;7.15;;;;;;;;;;4954443;29;20035;-80
2023/10/18 13:55:23;;;;;;;11.27;7.45;;;;;;;;;;4938563;29;20038;-80
2023/10/18 13:57:49;;;;;;;9.90;6.50;;;;;;;;;;4936394;29;20031;-80
2023/10/18 14:00:18;;;;;;;14.57;8.20;;;;;;;;;;4953715;29;20047;-81
2023/10/18 14:02:45;;;;;;;12.25;6.97;;;;;;;;;;4937820;29;20102;-80
2023/10/18 14:05:11;;;;;;;10.65;7.22;;;;;;;;;;4921025;29;20031;-81
2023/10/18 14:07:41;;;;;;;12.05;6.38;;;;;;;;;;4936126;29;20107;-79
2023/10/18 14:10:19;;;;;;;11.88;6.22;;;;;;;;;;4953708;29;20114;-79
2023/10/18 14:12:46;;;;;;;10.40;5.95;;;;;;;;;;4921865;29;20113;-81
2023/10/18 14:15:16;;;;;;;13.55;7.72;;;;;;;;;;4936224;29;20347;-81
2023/10/18 14:17:46;;;;;;;8.45;6.05;;;;;;;;;;4934866;29;20536;-81
2023/10/18 14:20:12;;;;;;;14.25;7.43;;;;;;;;;;4953029;28;20031;-79
2023/10/18 14:22:41;;;;;;;10.35;5.93;;;;;;;;;;4953947;28;20039;-80
2023/10/18 14:25:08;;;;;;;13.88;6.60;;;;;;;;;;4963899;28;20054;-79
2023/10/18 14:27:40;;;;;;;11.85;7.15;;;;;;;;;;4991377;28;20043;-80
2023/10/18 14:30:12;;;;;;;8.40;6.30;;;;;;;;;;4992869;28;20022;-79
2023/10/18 14:32:39;;;;;;;11.18;7.00;;;;;;;;;;4969130;28;20809;-79
2023/10/18 14:35:09;;;;;;;14.32;6.90;;;;;;;;;;4965632;28;20037;-77
2023/10/18 14:37:35;;;;;;;16.20;7.45;;;;;;;;;;4974624;28;20031;-79
2023/10/18 14:40:02;;;;;;;12.25;7.40;;;;;;;;;;4955802;28;20035;-81
2023/10/18 14:42:31;;;;;;;12.25;7.65;;;;;;;;;;4956145;28;20695;-80
2023/10/18 14:44:58;;;;;;;10.40;6.57;;;;;;;;;;4972708;28;20154;-80
2023/10/18 14:47:31;;;;;;;11.35;6.65;;;;;;;;;;4937726;28;20083;-79
2023/10/18 14:49:57;;;;;;;12.77;7.18;;;;;;;;;;4972252;28;20102;-80
2023/10/18 14:52:25;;;;;;;11.73;6.60;;;;;;;;;;4955516;28;20078;-80
2023/10/18 14:54:51;;;;;;;11.30;7.40;;;;;;;;;;4955127;28;20122;-79
2023/10/18 14:57:21;;;;;;;9.98;6.43;;;;;;;;;;4971877;28;20019;-80
2023/10/18 14:59:47;;;;;;;12.25;6.78;;;;;;;;;;4972413;28;20037;-79
2023/10/18 15:02:14;;;;;;;10.90;7.70;;;;;;;;;;4972798;28;20062;-79
2023/10/18 15:04:41;;;;;;;11.93;7.00;;;;;;;;;;4970851;28;20327;-81
2023/10/18 15:07:08;;;;;;;12.15;7.53;;;;;;;;;;4971911;28;20635;-80
2023/10/18 15:09:34;;;;;;;12.40;6.78;;;;;;;;;;4955180;28;20027;-80
2023/10/18 15:12:00;;;;;;;12.60;7.18;;;;;;;;;;4955083;28;20041;-80
2023/10/18 15:14:26;;;;;;;12.77;7.18;;;;;;;;;;4955115;28;20098;-79
2023/10/18 15:16:53;;;;;;;13.48;8.45;;;;;;;;;;4971516;28;20074;-80